createdAt,value
2018-07-17T00:00:06.581Z,40.23
2018-07-17T00:02:35.297Z,37.93
2018-07-17T00:05:04.580Z,37.50
2018-07-17T00:07:33.412Z,39.20
2018-07-17T00:10:02.223Z,39.07
2018-07-17T00:12:30.925Z,40.13
2018-07-17T00:14:59.686Z,44.20
2018-07-17T00:17:28.409Z,41.40
2018-07-17T00:19:57.126Z,43.67
2018-07-17T00:22:25.920Z,43.03
2018-07-17T00:24:54.693Z,44.43
2018-07-17T00:27:23.492Z,47.60
2018-07-17T00:29:52.298Z,43.93
2018-07-17T00:32:21.216Z,45.63
2018-07-17T00:34:49.958Z,42.20
2018-07-17T00:37:18.613Z,42.33
2018-07-17T00:39:47.470Z,40.37
2018-07-17T00:42:16.231Z,43.67
2018-07-17T00:44:44.989Z,43.20
2018-07-17T00:47:13.770Z,45.20
2018-07-17T00:49:42.529Z,43.07
2018-07-17T00:52:11.277Z,45.20
2018-07-17T00:54:39.976Z,44.83
2018-07-17T00:57:08.742Z,44.10
2018-07-17T00:59:37.538Z,44.87
2018-07-17T01:02:11.675Z,45.90
2018-07-17T01:04:45.739Z,44.10
2018-07-17T01:07:19.738Z,44.60
2018-07-17T01:09:53.830Z,46.07
2018-07-17T01:12:21.835Z,49.00
2018-07-17T01:14:53.638Z,52.00
2018-07-17T01:17:22.983Z,49.63
2018-07-17T01:19:51.781Z,46.97
2018-07-17T01:22:20.568Z,45.30
2018-07-17T01:24:49.303Z,43.23
2018-07-17T01:27:18.004Z,45.10
2018-07-17T01:29:46.665Z,41.80
2018-07-17T01:32:15.352Z,44.50
2018-07-17T01:34:44.070Z,48.10
2018-07-17T01:37:12.747Z,46.80
2018-07-17T01:39:41.409Z,50.60
2018-07-17T01:42:10.103Z,50.43
2018-07-17T01:44:39.273Z,50.40
2018-07-17T01:47:07.950Z,51.90
2018-07-17T01:49:36.740Z,53.73
2018-07-17T01:52:06.264Z,53.23
2018-07-17T01:54:35.013Z,51.10
2018-07-17T01:57:03.721Z,52.77
2018-07-17T01:59:32.452Z,53.67
2018-07-17T02:02:01.169Z,53.07
2018-07-17T02:04:30.268Z,51.10
2018-07-17T02:06:58.960Z,47.87
2018-07-17T02:09:27.920Z,45.60
2018-07-17T02:11:56.613Z,47.77
2018-07-17T02:14:25.296Z,48.57
2018-07-17T02:16:53.992Z,58.00
2018-07-17T02:19:22.684Z,57.00
2018-07-17T02:21:51.381Z,60.17
2018-07-17T02:24:20.128Z,58.63
2018-07-17T02:26:48.813Z,58.83
2018-07-17T02:29:17.497Z,57.83
2018-07-17T02:31:46.224Z,58.17
2018-07-17T02:34:15.681Z,55.87
2018-07-17T02:36:45.255Z,54.40
2018-07-17T02:39:13.925Z,51.13
2018-07-17T02:41:42.590Z,52.30
2018-07-17T02:44:12.588Z,50.03
2018-07-17T02:46:41.300Z,52.33
2018-07-17T02:49:09.989Z,50.70
2018-07-17T02:51:38.662Z,50.40
2018-07-17T02:54:07.854Z,52.80
2018-07-17T02:56:36.737Z,52.37
2018-07-17T02:59:05.459Z,51.50
2018-07-17T03:01:34.285Z,51.87
2018-07-17T03:04:02.955Z,54.07
2018-07-17T03:06:31.640Z,50.83
2018-07-17T03:09:00.345Z,49.87
2018-07-17T03:11:29.028Z,53.63
2018-07-17T03:13:57.744Z,54.00
2018-07-17T03:16:26.467Z,55.60
2018-07-17T03:18:55.113Z,49.40
2018-07-17T03:21:23.823Z,52.47
2018-07-17T03:23:52.464Z,52.77
2018-07-17T03:26:21.108Z,48.23
2018-07-17T03:28:50.638Z,46.37
2018-07-17T03:31:19.856Z,43.53
2018-07-17T03:33:48.530Z,41.80
2018-07-17T03:36:17.963Z,43.30
2018-07-17T03:38:46.635Z,44.80
2018-07-17T03:41:15.340Z,43.83
2018-07-17T03:43:45.090Z,41.47
2018-07-17T03:46:14.069Z,37.80
2018-07-17T03:48:42.745Z,38.37
2018-07-17T03:51:11.441Z,35.30
2018-07-17T03:53:41.192Z,37.03
2018-07-17T03:56:10.496Z,38.00
2018-07-17T03:58:40.182Z,40.00
2018-07-17T04:01:09.217Z,40.23
2018-07-17T04:03:38.874Z,38.27
2018-07-17T04:06:07.869Z,40.50
2018-07-17T04:08:36.660Z,39.47
2018-07-17T04:11:05.353Z,40.47
2018-07-17T04:13:34.039Z,40.33
2018-07-17T04:16:04.109Z,37.63
2018-07-17T04:18:34.393Z,35.50
2018-07-17T04:21:03.834Z,34.33
2018-07-17T04:23:32.575Z,33.80
2018-07-17T04:26:01.293Z,32.83
2018-07-17T04:28:30.022Z,33.90
2018-07-17T04:30:58.729Z,35.20
2018-07-17T04:33:27.470Z,33.50
2018-07-17T04:35:56.774Z,34.53
2018-07-17T04:38:25.659Z,33.90
2018-07-17T04:40:55.773Z,36.07
2018-07-17T04:43:25.332Z,32.00
2018-07-17T04:45:54.125Z,33.73
2018-07-17T04:48:22.896Z,34.23
2018-07-17T04:50:51.564Z,30.97
2018-07-17T04:53:20.284Z,30.60
2018-07-17T04:55:49.204Z,27.47
2018-07-17T04:58:17.922Z,28.33
2018-07-17T05:00:46.696Z,29.80
2018-07-17T05:03:16.921Z,31.10
2018-07-17T05:05:45.712Z,34.27
2018-07-17T05:08:14.425Z,35.90
2018-07-17T05:10:43.115Z,31.77
2018-07-17T05:13:11.796Z,33.30
2018-07-17T05:15:40.551Z,30.53
2018-07-17T05:18:09.238Z,28.83
2018-07-17T05:20:38.062Z,31.57
2018-07-17T05:23:06.783Z,31.20
2018-07-17T05:25:35.589Z,29.83
2018-07-17T05:28:04.343Z,28.50
2018-07-17T05:30:33.066Z,26.80
2018-07-17T05:33:01.864Z,28.33
2018-07-17T05:35:34.699Z,27.70
2018-07-17T05:38:04.004Z,25.40
2018-07-17T05:40:35.607Z,25.83
2018-07-17T05:43:04.840Z,25.00
2018-07-17T06:57:38.677Z,21.07
2018-07-17T07:00:07.520Z,19.87
2018-07-17T07:02:36.390Z,18.10
2018-07-17T07:05:05.257Z,17.60
2018-07-17T07:07:34.091Z,17.07
2018-07-17T07:10:02.935Z,16.60
2018-07-17T07:12:31.805Z,15.60
2018-07-17T07:15:00.776Z,14.40
2018-07-17T07:17:29.614Z,16.33
2018-07-17T07:19:58.361Z,14.77
2018-07-17T07:22:27.188Z,17.37
2018-07-17T07:24:57.374Z,21.70
2018-07-17T07:27:26.445Z,14.60
2018-07-17T07:29:55.343Z,11.37
2018-07-17T07:32:24.890Z,12.80
2018-07-17T07:34:53.900Z,10.60
2018-07-17T07:37:22.980Z,11.80
2018-07-17T07:39:52.623Z,11.73
2018-07-17T07:42:21.550Z,11.63
2018-07-17T07:44:50.454Z,12.70
2018-07-17T07:47:19.260Z,11.27
2018-07-17T07:49:48.169Z,9.83
2018-07-17T07:52:16.917Z,9.60
2018-07-17T07:54:45.925Z,8.90
2018-07-17T07:57:14.995Z,8.70
2018-07-17T07:59:43.964Z,8.53
2018-07-17T08:02:12.874Z,7.90
2018-07-17T08:04:42.079Z,9.50
2018-07-17T08:07:11.257Z,9.40
2018-07-17T08:09:40.276Z,11.00
2018-07-17T08:12:09.552Z,9.43
2018-07-17T08:14:38.365Z,10.13
2018-07-17T08:17:07.324Z,9.87
2018-07-17T08:19:36.097Z,10.20
2018-07-17T08:22:04.943Z,9.50
2018-07-17T08:24:33.731Z,9.97
2018-07-17T08:27:02.546Z,8.90
2018-07-17T08:29:31.332Z,9.90
2018-07-17T08:32:00.295Z,9.40
2018-07-17T08:34:29.060Z,8.93
2018-07-17T08:36:57.921Z,9.63
2018-07-17T08:39:26.656Z,8.53
2018-07-17T08:41:55.520Z,8.83
2018-07-17T08:44:24.255Z,8.60
2018-07-17T08:46:52.937Z,8.80
2018-07-17T08:49:21.720Z,7.53
2018-07-17T08:51:50.485Z,8.80
2018-07-17T08:54:19.277Z,8.60
2018-07-17T08:56:47.948Z,7.33
2018-07-17T08:59:16.695Z,9.97
2018-07-17T09:01:45.422Z,8.00
2018-07-17T09:04:14.099Z,7.20
2018-07-17T09:06:42.840Z,6.57
2018-07-17T09:09:11.571Z,7.60
2018-07-17T09:11:40.268Z,8.73
2018-07-17T09:14:08.984Z,7.57
2018-07-17T09:16:37.706Z,7.70
2018-07-17T09:19:06.485Z,8.10
2018-07-17T09:21:35.223Z,8.27
2018-07-17T09:24:03.994Z,7.93
2018-07-17T09:26:32.704Z,7.60
2018-07-17T09:29:01.591Z,7.00
2018-07-17T09:31:30.372Z,7.20
2018-07-17T09:33:59.103Z,7.70
2018-07-17T09:36:27.911Z,7.40
2018-07-17T09:38:56.738Z,7.03
2018-07-17T09:41:25.351Z,7.90
2018-07-17T09:43:54.127Z,7.23
2018-07-17T09:46:22.915Z,7.57
2018-07-17T09:48:51.660Z,7.33
2018-07-17T09:51:20.531Z,5.87
2018-07-17T09:53:49.272Z,6.30
2018-07-17T09:56:18.065Z,6.17
2018-07-17T09:58:46.855Z,6.60
2018-07-17T10:01:20.995Z,6.13
2018-07-17T10:03:49.836Z,5.63
2018-07-17T10:06:18.727Z,6.40
2018-07-17T10:08:47.522Z,5.70
2018-07-17T10:11:16.323Z,6.20
2018-07-17T10:13:47.093Z,7.20
2018-07-17T10:16:15.979Z,7.33
2018-07-17T10:18:44.804Z,6.50
2018-07-17T10:21:13.570Z,6.73
2018-07-17T10:23:42.468Z,6.43
2018-07-17T10:26:11.317Z,6.40
2018-07-17T10:28:39.998Z,7.00
2018-07-17T10:31:08.748Z,6.10
2018-07-17T10:33:37.742Z,6.70
2018-07-17T10:36:06.438Z,6.27
2018-07-17T10:38:35.103Z,6.17
2018-07-17T10:41:03.829Z,6.33
2018-07-17T10:43:32.530Z,5.93
2018-07-17T10:46:01.220Z,5.97
2018-07-17T10:48:29.939Z,6.17
2018-07-17T10:50:58.697Z,6.50
2018-07-17T10:53:27.462Z,6.50
2018-07-17T10:55:56.458Z,6.43
2018-07-17T10:58:25.169Z,6.67
2018-07-17T11:00:54.003Z,6.77
2018-07-17T11:03:22.723Z,6.77
2018-07-17T11:05:51.710Z,6.13
2018-07-17T11:08:20.634Z,6.70
2018-07-17T11:10:49.395Z,7.47
2018-07-17T11:13:18.212Z,12.40
2018-07-17T11:15:46.957Z,14.17
2018-07-17T11:18:15.760Z,6.80
2018-07-17T11:20:44.521Z,7.10
2018-07-17T11:23:13.328Z,6.10
2018-07-17T11:25:42.174Z,5.70
2018-07-17T11:28:10.953Z,6.50
2018-07-17T11:30:39.786Z,6.30
2018-07-17T11:33:08.530Z,6.93
2018-07-17T11:35:37.292Z,6.33
2018-07-17T11:38:06.051Z,7.27
2018-07-17T11:40:35.017Z,6.43
2018-07-17T11:43:03.878Z,6.93
2018-07-17T11:45:34.843Z,7.40
2018-07-17T11:48:03.594Z,7.00
2018-07-17T11:50:32.428Z,6.63
2018-07-17T11:53:01.123Z,6.37
2018-07-17T11:55:29.971Z,7.33
2018-07-17T11:57:58.650Z,6.83
2018-07-17T12:00:27.524Z,6.57
2018-07-17T12:02:56.349Z,8.37
2018-07-17T12:05:25.126Z,7.30
2018-07-17T12:07:53.800Z,6.67
2018-07-17T12:10:22.619Z,7.57
2018-07-17T12:12:51.480Z,6.80
2018-07-17T12:15:20.131Z,6.57
2018-07-17T12:17:48.899Z,7.20
2018-07-17T12:20:17.718Z,6.70
2018-07-17T12:22:46.392Z,5.70
2018-07-17T12:25:15.613Z,6.30
2018-07-17T12:27:44.264Z,6.37
2018-07-17T12:30:13.106Z,6.53
2018-07-17T12:32:41.864Z,6.57
2018-07-17T12:35:10.659Z,6.60
2018-07-17T12:37:39.417Z,6.00
2018-07-17T12:40:08.147Z,6.47
2018-07-17T12:42:36.987Z,5.97
2018-07-17T12:45:05.894Z,6.80
2018-07-17T12:47:34.634Z,7.53
2018-07-17T12:50:03.488Z,6.60
2018-07-17T12:52:32.264Z,7.03
2018-07-17T12:55:01.103Z,5.60
2018-07-17T12:57:29.814Z,6.83
2018-07-17T12:59:58.523Z,6.57
2018-07-17T13:02:27.306Z,5.70
2018-07-17T13:04:56.231Z,6.00
2018-07-17T13:07:25.045Z,7.17
2018-07-17T13:09:53.758Z,11.67
2018-07-17T13:12:22.566Z,13.20
2018-07-17T13:14:51.350Z,32.53
2018-07-17T13:17:20.124Z,27.23
2018-07-17T13:19:48.804Z,20.03
2018-07-17T13:22:17.551Z,22.47
2018-07-17T13:24:46.354Z,27.70
2018-07-17T13:27:15.224Z,13.30
2018-07-17T13:29:43.973Z,12.07
2018-07-17T13:32:12.708Z,13.83
2018-07-17T13:34:41.568Z,12.30
2018-07-17T13:37:10.505Z,9.17
2018-07-17T13:39:39.621Z,9.63
2018-07-17T13:42:08.432Z,9.93
2018-07-17T13:44:37.307Z,23.17
2018-07-17T13:47:06.110Z,13.27
2018-07-17T13:49:34.828Z,20.80
2018-07-17T13:52:03.614Z,19.70
2018-07-17T13:54:32.348Z,11.90
2018-07-17T13:57:01.161Z,18.13
2018-07-17T13:59:29.824Z,23.20
2018-07-17T14:01:58.617Z,13.87
2018-07-17T14:04:27.423Z,30.33
2018-07-17T14:06:56.199Z,28.30
2018-07-17T14:09:24.998Z,19.90
2018-07-17T14:11:53.687Z,12.50
2018-07-17T14:14:22.431Z,10.90
2018-07-17T14:16:51.365Z,10.63
2018-07-17T14:19:20.181Z,9.63
2018-07-17T14:21:49.714Z,7.90
2018-07-17T14:24:18.635Z,8.37
2018-07-17T14:26:48.101Z,9.73
2018-07-17T14:29:16.884Z,7.37
2018-07-17T14:31:46.256Z,8.17
2018-07-17T14:34:15.631Z,6.90
2018-07-17T14:36:44.588Z,6.50
2018-07-17T14:39:14.243Z,6.67
2018-07-17T14:41:43.350Z,5.97
2018-07-17T14:44:12.072Z,6.37
2018-07-17T14:46:41.024Z,6.20
2018-07-17T14:49:09.757Z,6.67
2018-07-17T14:51:38.518Z,6.67
2018-07-17T14:54:07.317Z,6.40
2018-07-17T14:56:36.212Z,7.00
2018-07-17T14:59:04.962Z,6.30
2018-07-17T15:01:33.763Z,6.27
2018-07-17T15:04:02.497Z,6.17
2018-07-17T15:06:31.322Z,5.70
2018-07-17T15:09:00.092Z,6.80
2018-07-17T15:11:28.932Z,6.70
2018-07-17T15:13:57.693Z,5.90
2018-07-17T15:16:26.529Z,7.00
2018-07-17T15:18:55.339Z,5.60
2018-07-17T15:21:24.069Z,7.30
2018-07-17T15:23:52.804Z,6.50
2018-07-17T15:26:21.530Z,6.77
2018-07-17T15:28:50.329Z,7.73
2018-07-17T15:31:19.221Z,6.50
2018-07-17T15:33:48.056Z,6.67
2018-07-17T15:36:16.893Z,6.60
2018-07-17T15:38:45.823Z,6.53
2018-07-17T15:41:14.540Z,7.10
2018-07-17T15:43:43.378Z,7.60
2018-07-17T15:46:12.111Z,7.70
2018-07-17T15:48:40.908Z,7.30
2018-07-17T15:51:09.691Z,7.40
2018-07-17T15:53:38.463Z,8.23
2018-07-17T15:56:07.264Z,8.23
2018-07-17T15:58:36.191Z,7.43
2018-07-17T16:01:04.944Z,9.00
2018-07-17T16:03:33.762Z,7.60
2018-07-17T16:06:02.542Z,7.50
2018-07-17T16:08:31.462Z,7.80
2018-07-17T16:11:00.147Z,8.60
2018-07-17T16:13:29.085Z,8.17
2018-07-17T16:15:57.715Z,8.33
2018-07-17T16:18:26.413Z,8.23
2018-07-17T16:20:55.189Z,8.30
2018-07-17T16:23:23.938Z,7.83
2018-07-17T16:25:53.049Z,8.23
2018-07-17T16:28:21.844Z,7.87
2018-07-17T16:30:50.637Z,7.63
2018-07-17T16:33:19.342Z,7.57
2018-07-17T16:35:48.130Z,7.47
2018-07-17T16:38:16.844Z,7.70
2018-07-17T16:40:45.551Z,7.20
2018-07-17T16:43:14.324Z,7.63
2018-07-17T16:45:43.104Z,8.67
2018-07-17T16:48:11.951Z,8.37
2018-07-17T16:50:40.688Z,8.33
2018-07-17T16:53:09.465Z,8.03
2018-07-17T16:55:38.342Z,8.37
2018-07-17T16:58:07.330Z,7.40
2018-07-17T17:00:36.336Z,8.13
2018-07-17T17:03:05.164Z,8.30
2018-07-17T17:05:33.946Z,11.80
2018-07-17T17:08:02.825Z,13.67
2018-07-17T17:10:31.544Z,43.50
2018-07-17T17:13:00.389Z,25.33
2018-07-17T17:15:29.452Z,38.10
2018-07-17T17:17:58.470Z,27.93
2018-07-17T17:20:27.681Z,20.40
2018-07-17T17:22:56.458Z,14.67
2018-07-17T17:25:25.703Z,8.53
2018-07-17T17:27:54.772Z,16.47
2018-07-17T17:30:23.814Z,13.20
2018-07-17T17:32:52.617Z,14.00
2018-07-17T17:35:21.404Z,16.87
2018-07-17T17:37:50.279Z,10.33
2018-07-17T17:40:19.216Z,14.13
2018-07-17T17:42:48.191Z,10.03
2018-07-17T17:45:17.043Z,11.37
2018-07-17T17:47:45.719Z,11.73
2018-07-17T17:50:14.920Z,11.33
2018-07-17T17:52:43.788Z,16.70
2018-07-17T17:55:13.443Z,14.43
2018-07-17T17:57:42.571Z,15.20
2018-07-17T18:00:11.361Z,24.37
2018-07-17T18:02:40.276Z,26.77
2018-07-17T18:05:09.105Z,25.73
2018-07-17T18:07:37.884Z,27.10
2018-07-17T18:10:06.681Z,14.30
2018-07-17T18:12:35.400Z,31.57
2018-07-17T18:15:04.164Z,27.07
2018-07-17T18:17:32.978Z,11.93
2018-07-17T18:20:01.675Z,25.73
2018-07-17T18:22:30.377Z,13.27
2018-07-17T18:24:59.252Z,15.43
2018-07-17T18:27:28.000Z,16.17
2018-07-17T18:29:56.787Z,10.20
2018-07-17T18:32:25.598Z,14.30
2018-07-17T18:34:54.452Z,11.10
2018-07-17T18:37:23.364Z,14.70
2018-07-17T18:39:52.369Z,14.13
2018-07-17T18:42:21.101Z,9.87
2018-07-17T18:44:49.868Z,10.70
2018-07-17T18:47:18.624Z,9.97
2018-07-17T18:49:48.195Z,12.60
2018-07-17T18:52:17.213Z,10.40
2018-07-17T18:54:45.944Z,9.47
2018-07-17T18:57:14.872Z,9.87
2018-07-17T18:59:44.944Z,10.60
2018-07-17T19:02:14.028Z,9.83
2018-07-17T19:04:43.173Z,9.03
2018-07-17T19:07:12.190Z,9.33
2018-07-17T19:09:40.934Z,8.43
2018-07-17T19:12:09.842Z,9.30
2018-07-17T19:14:38.762Z,9.27
2018-07-17T19:17:07.660Z,10.30
2018-07-17T19:19:36.767Z,9.87
2018-07-17T19:22:05.580Z,10.37
2018-07-17T19:24:34.322Z,9.60
2018-07-17T19:27:03.128Z,9.53
2018-07-17T19:29:31.912Z,10.17
2018-07-17T19:32:00.731Z,9.10
2018-07-17T19:34:29.897Z,10.37
2018-07-17T19:36:59.417Z,9.80
2018-07-17T19:39:28.445Z,9.13
2018-07-17T19:41:57.236Z,9.93
2018-07-17T19:44:26.267Z,9.83
2018-07-17T19:46:55.278Z,10.50
2018-07-17T19:49:24.181Z,9.60
2018-07-17T19:51:52.976Z,8.80
2018-07-17T19:54:21.923Z,8.93
2018-07-17T19:56:50.756Z,9.03
2018-07-17T19:59:20.216Z,9.63
2018-07-17T20:01:49.195Z,10.20
2018-07-17T20:04:18.256Z,10.40
2018-07-17T20:09:51.335Z,10.70
2018-07-17T20:12:20.198Z,28.87
2018-07-17T20:14:48.997Z,47.43
2018-07-17T20:17:17.723Z,36.57
2018-07-17T20:19:46.560Z,22.20
2018-07-17T20:22:15.204Z,13.30
2018-07-17T20:24:44.069Z,12.00
2018-07-17T20:27:12.882Z,13.17
2018-07-17T20:29:41.536Z,12.63
2018-07-17T20:32:10.288Z,10.83
2018-07-17T20:34:39.810Z,11.47
2018-07-17T20:37:09.341Z,11.50
2018-07-17T20:39:38.517Z,12.30
2018-07-17T20:42:07.318Z,11.40
2018-07-17T20:44:36.496Z,12.93
2018-07-17T20:47:05.453Z,12.27
2018-07-17T20:49:34.333Z,11.37
2018-07-17T20:52:03.248Z,12.77
2018-07-17T20:54:32.054Z,11.73
2018-07-17T20:57:01.161Z,11.20
2018-07-17T20:59:30.017Z,11.63
2018-07-17T21:01:58.971Z,12.20
2018-07-17T21:04:27.844Z,11.37
2018-07-17T21:06:57.486Z,11.87
2018-07-17T21:09:26.545Z,12.33
2018-07-17T21:11:55.482Z,12.47
2018-07-17T21:14:24.428Z,12.67
2018-07-17T21:16:53.524Z,12.50
2018-07-17T21:19:22.305Z,12.03
2018-07-17T21:21:51.256Z,12.37
2018-07-17T21:24:20.039Z,12.03
2018-07-17T21:26:48.960Z,14.33
2018-07-17T21:29:17.667Z,12.60
2018-07-17T21:31:46.442Z,12.97
2018-07-17T21:34:15.543Z,13.40
2018-07-17T21:36:44.293Z,13.53
2018-07-17T21:39:13.945Z,94.27
2018-07-17T21:41:42.711Z,97.70
2018-07-17T21:44:11.602Z,27.03
2018-07-17T21:46:40.505Z,16.00
2018-07-17T21:49:09.235Z,13.97
2018-07-17T21:51:37.986Z,13.57
2018-07-17T21:54:07.383Z,13.17
2018-07-17T21:56:36.828Z,12.53
2018-07-17T21:59:06.439Z,12.70
2018-07-17T22:01:35.473Z,13.03
2018-07-17T22:04:04.792Z,11.67
2018-07-17T22:06:34.039Z,13.83
2018-07-17T22:09:03.182Z,16.13
2018-07-17T22:11:32.050Z,17.33
2018-07-17T22:14:00.897Z,15.80
2018-07-17T22:16:29.664Z,14.73
2018-07-17T22:18:58.425Z,13.43
2018-07-17T22:21:27.200Z,12.50
2018-07-17T22:23:55.921Z,12.77
2018-07-17T22:26:24.691Z,11.87
2018-07-17T22:28:53.493Z,12.47
2018-07-17T22:31:23.348Z,12.03
2018-07-17T22:33:52.112Z,11.03
2018-07-17T22:36:20.771Z,11.50
2018-07-17T22:38:49.558Z,11.03
2018-07-17T22:41:18.480Z,10.60
2018-07-17T22:43:47.240Z,10.90
2018-07-17T22:46:16.196Z,11.53
2018-07-17T22:48:45.356Z,11.30
2018-07-17T22:51:14.212Z,15.77
2018-07-17T22:53:43.209Z,11.50
2018-07-17T22:56:12.103Z,9.53
2018-07-17T22:58:40.965Z,10.20
2018-07-17T23:01:09.767Z,11.10
2018-07-17T23:03:38.567Z,11.00
2018-07-17T23:06:07.356Z,10.60
2018-07-17T23:08:36.245Z,10.40
2018-07-17T23:11:05.185Z,10.70
2018-07-17T23:13:34.111Z,10.13
2018-07-17T23:16:03.071Z,10.67
2018-07-17T23:18:31.793Z,11.60
2018-07-17T23:21:00.904Z,10.13
2018-07-17T23:23:29.853Z,10.50
2018-07-17T23:25:58.847Z,10.80
2018-07-17T23:28:27.741Z,9.97
2018-07-17T23:30:56.614Z,10.93
2018-07-17T23:33:25.522Z,10.63
2018-07-17T23:35:54.443Z,10.40
2018-07-17T23:38:23.455Z,10.80
2018-07-17T23:40:52.292Z,10.20
2018-07-17T23:43:21.178Z,10.53
2018-07-17T23:45:49.933Z,10.70
2018-07-17T23:48:18.738Z,10.87
2018-07-17T23:50:47.796Z,10.53
2018-07-17T23:53:16.772Z,10.57
2018-07-17T23:55:45.696Z,10.20
2018-07-17T23:58:14.570Z,10.20
